sensor_id;sensor_type;location;lat;lon;timestamp;P1;durP1;ratioP1;P2;durP2;ratioP2
15931;SDS011;8065;49.520;11.284;2023-04-25T00:00:52;4.70;;;4.30;;
15931;SDS011;8065;49.520;11.284;2023-04-25T00:03:18;4.40;;;4.00;;
15931;SDS011;8065;49.520;11.284;2023-04-25T00:05:47;4.77;;;4.30;;
15931;SDS011;8065;49.520;11.284;2023-04-25T00:08:13;5.23;;;4.33;;
15931;SDS011;8065;49.520;11.284;2023-04-25T00:10:40;7.03;;;5.40;;
15931;SDS011;8065;49.520;11.284;2023-04-25T00:13:06;6.00;;;4.97;;
15931;SDS011;8065;49.520;11.284;2023-04-25T00:15:33;4.80;;;4.40;;
15931;SDS011;8065;49.520;11.284;2023-04-25T00:18:01;6.30;;;4.93;;
15931;SDS011;8065;49.520;11.284;2023-04-25T00:20:27;5.03;;;4.53;;
15931;SDS011;8065;49.520;11.284;2023-04-25T00:22:56;5.23;;;4.53;;
15931;SDS011;8065;49.520;11.284;2023-04-25T00:25:22;5.23;;;4.73;;
15931;SDS011;8065;49.520;11.284;2023-04-25T00:27:49;6.27;;;4.90;;
15931;SDS011;8065;49.520;11.284;2023-04-25T00:30:15;5.27;;;4.77;;
15931;SDS011;8065;49.520;11.284;2023-04-25T00:32:42;5.27;;;4.77;;
15931;SDS011;8065;49.520;11.284;2023-04-25T00:35:09;5.57;;;5.07;;
15931;SDS011;8065;49.520;11.284;2023-04-25T00:37:35;6.47;;;4.90;;
15931;SDS011;8065;49.520;11.284;2023-04-25T00:40:03;5.93;;;5.33;;
15931;SDS011;8065;49.520;11.284;2023-04-25T00:42:32;6.73;;;5.40;;
15931;SDS011;8065;49.520;11.284;2023-04-25T00:45:00;5.87;;;5.33;;
15931;SDS011;8065;49.520;11.284;2023-04-25T00:47:27;4.70;;;4.30;;
15931;SDS011;8065;49.520;11.284;2023-04-25T00:49:54;5.60;;;5.00;;
15931;SDS011;8065;49.520;11.284;2023-04-25T00:52:21;5.63;;;5.00;;
15931;SDS011;8065;49.520;11.284;2023-04-25T00:54:47;5.60;;;5.10;;
15931;SDS011;8065;49.520;11.284;2023-04-25T00:57:15;5.60;;;5.10;;
15931;SDS011;8065;49.520;11.284;2023-04-25T00:59:42;5.43;;;4.87;;
15931;SDS011;8065;49.520;11.284;2023-04-25T01:02:11;7.23;;;5.10;;
15931;SDS011;8065;49.520;11.284;2023-04-25T01:04:38;5.40;;;4.77;;
15931;SDS011;8065;49.520;11.284;2023-04-25T01:07:05;5.40;;;4.90;;
15931;SDS011;8065;49.520;11.284;2023-04-25T01:09:33;5.57;;;4.60;;
15931;SDS011;8065;49.520;11.284;2023-04-25T01:12:00;5.40;;;4.97;;
15931;SDS011;8065;49.520;11.284;2023-04-25T01:14:28;5.60;;;5.07;;
15931;SDS011;8065;49.520;11.284;2023-04-25T01:16:54;4.67;;;4.20;;
15931;SDS011;8065;49.520;11.284;2023-04-25T01:19:22;4.47;;;4.07;;
15931;SDS011;8065;49.520;11.284;2023-04-25T01:21:51;4.57;;;4.07;;
15931;SDS011;8065;49.520;11.284;2023-04-25T01:24:18;3.93;;;3.60;;
15931;SDS011;8065;49.520;11.284;2023-04-25T01:26:44;4.80;;;4.30;;
15931;SDS011;8065;49.520;11.284;2023-04-25T01:29:14;4.87;;;4.07;;
15931;SDS011;8065;49.520;11.284;2023-04-25T01:31:41;4.77;;;4.20;;
15931;SDS011;8065;49.520;11.284;2023-04-25T01:34:08;4.93;;;4.10;;
15931;SDS011;8065;49.520;11.284;2023-04-25T01:36:35;4.20;;;3.80;;
15931;SDS011;8065;49.520;11.284;2023-04-25T01:39:03;5.20;;;4.20;;
15931;SDS011;8065;49.520;11.284;2023-04-25T01:41:30;5.67;;;5.13;;
15931;SDS011;8065;49.520;11.284;2023-04-25T01:43:57;5.13;;;4.53;;
15931;SDS011;8065;49.520;11.284;2023-04-25T01:46:24;5.30;;;4.80;;
15931;SDS011;8065;49.520;11.284;2023-04-25T01:48:50;6.07;;;5.00;;
15931;SDS011;8065;49.520;11.284;2023-04-25T01:51:17;4.80;;;4.40;;
15931;SDS011;8065;49.520;11.284;2023-04-25T01:53:43;5.47;;;4.90;;
15931;SDS011;8065;49.520;11.284;2023-04-25T01:56:12;5.07;;;4.57;;
15931;SDS011;8065;49.520;11.284;2023-04-25T01:58:38;8.87;;;5.17;;
15931;SDS011;8065;49.520;11.284;2023-04-25T02:01:05;5.03;;;4.53;;
15931;SDS011;8065;49.520;11.284;2023-04-25T02:03:31;5.00;;;4.50;;
15931;SDS011;8065;49.520;11.284;2023-04-25T02:05:58;5.20;;;4.70;;
15931;SDS011;8065;49.520;11.284;2023-04-25T02:08:25;6.60;;;5.20;;
15931;SDS011;8065;49.520;11.284;2023-04-25T02:10:51;6.37;;;5.00;;
15931;SDS011;8065;49.520;11.284;2023-04-25T02:13:19;6.33;;;4.90;;
15931;SDS011;8065;49.520;11.284;2023-04-25T02:15:46;5.37;;;4.87;;
15931;SDS011;8065;49.520;11.284;2023-04-25T02:18:12;5.80;;;5.20;;
15931;SDS011;8065;49.520;11.284;2023-04-25T02:20:41;5.50;;;4.80;;
15931;SDS011;8065;49.520;11.284;2023-04-25T02:23:07;7.57;;;5.53;;
15931;SDS011;8065;49.520;11.284;2023-04-25T02:25:34;4.83;;;4.40;;
15931;SDS011;8065;49.520;11.284;2023-04-25T02:28:00;5.63;;;5.07;;
15931;SDS011;8065;49.520;11.284;2023-04-25T02:30:28;6.33;;;5.13;;
15931;SDS011;8065;49.520;11.284;2023-04-25T02:32:55;5.67;;;5.03;;
15931;SDS011;8065;49.520;11.284;2023-04-25T02:35:21;5.20;;;4.70;;
15931;SDS011;8065;49.520;11.284;2023-04-25T02:37:48;5.30;;;4.80;;
15931;SDS011;8065;49.520;11.284;2023-04-25T02:40:14;4.93;;;4.43;;
15931;SDS011;8065;49.520;11.284;2023-04-25T02:42:41;5.37;;;4.80;;
15931;SDS011;8065;49.520;11.284;2023-04-25T02:45:08;6.17;;;4.90;;
15931;SDS011;8065;49.520;11.284;2023-04-25T02:47:36;5.00;;;4.50;;
15931;SDS011;8065;49.520;11.284;2023-04-25T02:50:03;4.67;;;4.27;;
15931;SDS011;8065;49.520;11.284;2023-04-25T02:52:30;5.20;;;4.70;;
15931;SDS011;8065;49.520;11.284;2023-04-25T02:54:56;4.80;;;4.30;;
15931;SDS011;8065;49.520;11.284;2023-04-25T02:57:23;6.20;;;4.23;;
15931;SDS011;8065;49.520;11.284;2023-04-25T02:59:50;5.20;;;4.70;;
15931;SDS011;8065;49.520;11.284;2023-04-25T03:02:16;7.23;;;4.80;;
15931;SDS011;8065;49.520;11.284;2023-04-25T03:04:44;5.73;;;4.93;;
15931;SDS011;8065;49.520;11.284;2023-04-25T03:07:11;5.30;;;4.60;;
15931;SDS011;8065;49.520;11.284;2023-04-25T03:09:37;5.80;;;5.17;;
15931;SDS011;8065;49.520;11.284;2023-04-25T03:12:04;5.17;;;4.77;;
15931;SDS011;8065;49.520;11.284;2023-04-25T03:14:31;5.13;;;4.63;;
15931;SDS011;8065;49.520;11.284;2023-04-25T03:16:57;5.13;;;4.63;;
15931;SDS011;8065;49.520;11.284;2023-04-25T03:19:23;5.70;;;5.20;;
15931;SDS011;8065;49.520;11.284;2023-04-25T03:21:51;5.37;;;4.83;;
15931;SDS011;8065;49.520;11.284;2023-04-25T03:24:18;5.60;;;5.00;;
15931;SDS011;8065;49.520;11.284;2023-04-25T03:26:45;6.30;;;4.87;;
15931;SDS011;8065;49.520;11.284;2023-04-25T03:29:12;5.23;;;4.73;;
15931;SDS011;8065;49.520;11.284;2023-04-25T03:31:38;5.60;;;5.10;;
15931;SDS011;8065;49.520;11.284;2023-04-25T03:34:05;6.37;;;4.87;;
15931;SDS011;8065;49.520;11.284;2023-04-25T03:36:31;5.93;;;5.43;;
15931;SDS011;8065;49.520;11.284;2023-04-25T03:38:59;6.80;;;5.37;;
15931;SDS011;8065;49.520;11.284;2023-04-25T03:41:26;6.07;;;5.47;;
15931;SDS011;8065;49.520;11.284;2023-04-25T03:43:52;7.73;;;6.00;;
15931;SDS011;8065;49.520;11.284;2023-04-25T03:46:19;7.13;;;5.43;;
15931;SDS011;8065;49.520;11.284;2023-04-25T03:48:45;5.90;;;5.23;;
15931;SDS011;8065;49.520;11.284;2023-04-25T03:51:12;11.00;;;7.03;;
15931;SDS011;8065;49.520;11.284;2023-04-25T03:53:38;6.60;;;5.80;;
15931;SDS011;8065;49.520;11.284;2023-04-25T03:56:06;9.87;;;6.50;;
15931;SDS011;8065;49.520;11.284;2023-04-25T03:58:33;8.10;;;6.23;;
15931;SDS011;8065;49.520;11.284;2023-04-25T04:00:59;9.70;;;6.20;;
15931;SDS011;8065;49.520;11.284;2023-04-25T04:03:27;7.43;;;5.73;;
15931;SDS011;8065;49.520;11.284;2023-04-25T04:05:54;8.17;;;6.07;;
15931;SDS011;8065;49.520;11.284;2023-04-25T04:08:21;9.23;;;6.40;;
15931;SDS011;8065;49.520;11.284;2023-04-25T04:10:47;6.97;;;6.20;;
15931;SDS011;8065;49.520;11.284;2023-04-25T04:13:15;7.87;;;6.33;;
15931;SDS011;8065;49.520;11.284;2023-04-25T04:15:41;7.97;;;6.40;;
15931;SDS011;8065;49.520;11.284;2023-04-25T04:18:08;7.13;;;6.43;;
15931;SDS011;8065;49.520;11.284;2023-04-25T04:20:34;8.03;;;6.67;;
15931;SDS011;8065;49.520;11.284;2023-04-25T04:23:01;7.47;;;5.73;;
15931;SDS011;8065;49.520;11.284;2023-04-25T04:25:28;9.50;;;6.60;;
15931;SDS011;8065;49.520;11.284;2023-04-25T04:27:55;6.83;;;6.13;;
15931;SDS011;8065;49.520;11.284;2023-04-25T04:30:23;7.60;;;6.40;;
15931;SDS011;8065;49.520;11.284;2023-04-25T04:32:50;7.43;;;5.70;;
15931;SDS011;8065;49.520;11.284;2023-04-25T04:35:17;6.57;;;5.93;;
15931;SDS011;8065;49.520;11.284;2023-04-25T04:37:43;7.73;;;6.40;;
15931;SDS011;8065;49.520;11.284;2023-04-25T04:40:10;6.50;;;5.73;;
15931;SDS011;8065;49.520;11.284;2023-04-25T04:42:40;6.73;;;6.00;;
15931;SDS011;8065;49.520;11.284;2023-04-25T04:45:07;6.17;;;5.57;;
15931;SDS011;8065;49.520;11.284;2023-04-25T04:47:35;6.13;;;5.47;;
15931;SDS011;8065;49.520;11.284;2023-04-25T04:50:02;6.37;;;5.77;;
15931;SDS011;8065;49.520;11.284;2023-04-25T04:52:29;10.60;;;5.97;;
15931;SDS011;8065;49.520;11.284;2023-04-25T04:54:55;8.30;;;6.50;;
15931;SDS011;8065;49.520;11.284;2023-04-25T04:57:22;7.23;;;5.67;;
15931;SDS011;8065;49.520;11.284;2023-04-25T04:59:48;7.40;;;6.07;;
15931;SDS011;8065;49.520;11.284;2023-04-25T05:02:15;7.53;;;6.73;;
15931;SDS011;8065;49.520;11.284;2023-04-25T05:04:43;8.27;;;6.57;;
15931;SDS011;8065;49.520;11.284;2023-04-25T05:07:10;6.33;;;5.73;;
15931;SDS011;8065;49.520;11.284;2023-04-25T05:09:36;6.33;;;5.73;;
15931;SDS011;8065;49.520;11.284;2023-04-25T05:12:03;8.57;;;6.30;;
15931;SDS011;8065;49.520;11.284;2023-04-25T05:14:30;6.70;;;6.10;;
15931;SDS011;8065;49.520;11.284;2023-04-25T05:16:57;7.23;;;6.40;;
15931;SDS011;8065;49.520;11.284;2023-04-25T05:19:24;6.80;;;5.80;;
15931;SDS011;8065;49.520;11.284;2023-04-25T05:21:52;7.37;;;6.50;;
15931;SDS011;8065;49.520;11.284;2023-04-25T05:24:19;7.00;;;6.30;;
15931;SDS011;8065;49.520;11.284;2023-04-25T05:26:45;6.50;;;5.67;;
15931;SDS011;8065;49.520;11.284;2023-04-25T05:29:12;7.63;;;6.73;;
15931;SDS011;8065;49.520;11.284;2023-04-25T05:31:38;7.07;;;6.07;;
15931;SDS011;8065;49.520;11.284;2023-04-25T05:34:05;6.83;;;6.13;;
15931;SDS011;8065;49.520;11.284;2023-04-25T05:36:31;6.30;;;5.70;;
15931;SDS011;8065;49.520;11.284;2023-04-25T05:38:59;7.40;;;6.70;;
15931;SDS011;8065;49.520;11.284;2023-04-25T05:41:25;6.60;;;6.00;;
15931;SDS011;8065;49.520;11.284;2023-04-25T05:43:52;7.00;;;6.30;;
15931;SDS011;8065;49.520;11.284;2023-04-25T05:46:18;6.80;;;5.67;;
15931;SDS011;8065;49.520;11.284;2023-04-25T05:48:45;6.17;;;5.50;;
15931;SDS011;8065;49.520;11.284;2023-04-25T05:51:11;6.80;;;6.10;;
15931;SDS011;8065;49.520;11.284;2023-04-25T05:53:38;6.67;;;6.07;;
15931;SDS011;8065;49.520;11.284;2023-04-25T05:56:06;6.37;;;5.67;;
15931;SDS011;8065;49.520;11.284;2023-04-25T05:58:32;6.77;;;5.87;;
15931;SDS011;8065;49.520;11.284;2023-04-25T06:00:59;6.17;;;5.63;;
15931;SDS011;8065;49.520;11.284;2023-04-25T06:03:25;6.47;;;5.33;;
15931;SDS011;8065;49.520;11.284;2023-04-25T06:05:51;6.63;;;5.97;;
15931;SDS011;8065;49.520;11.284;2023-04-25T06:08:18;6.07;;;5.07;;
15931;SDS011;8065;49.520;11.284;2023-04-25T06:10:44;6.70;;;5.33;;
15931;SDS011;8065;49.520;11.284;2023-04-25T06:13:12;5.00;;;4.60;;
15931;SDS011;8065;49.520;11.284;2023-04-25T06:15:39;5.80;;;5.20;;
15931;SDS011;8065;49.520;11.284;2023-04-25T06:18:05;6.03;;;4.43;;
15931;SDS011;8065;49.520;11.284;2023-04-25T06:20:32;5.70;;;5.10;;
15931;SDS011;8065;49.520;11.284;2023-04-25T06:22:59;5.53;;;4.60;;
15931;SDS011;8065;49.520;11.284;2023-04-25T06:25:25;5.23;;;4.67;;
15931;SDS011;8065;49.520;11.284;2023-04-25T06:27:52;5.53;;;5.00;;
15931;SDS011;8065;49.520;11.284;2023-04-25T06:30:20;4.40;;;4.07;;
15931;SDS011;8065;49.520;11.284;2023-04-25T06:32:50;4.70;;;4.30;;
15931;SDS011;8065;49.520;11.284;2023-04-25T06:35:17;4.67;;;4.27;;
15931;SDS011;8065;49.520;11.284;2023-04-25T06:37:44;4.60;;;4.20;;
15931;SDS011;8065;49.520;11.284;2023-04-25T06:40:11;4.60;;;4.20;;
15931;SDS011;8065;49.520;11.284;2023-04-25T06:42:37;5.23;;;4.67;;
15931;SDS011;8065;49.520;11.284;2023-04-25T06:45:04;4.60;;;4.20;;
15931;SDS011;8065;49.520;11.284;2023-04-25T06:47:32;4.73;;;4.33;;
15931;SDS011;8065;49.520;11.284;2023-04-25T06:49:58;5.03;;;4.13;;
15931;SDS011;8065;49.520;11.284;2023-04-25T06:52:25;5.80;;;4.70;;
15931;SDS011;8065;49.520;11.284;2023-04-25T06:54:51;5.60;;;5.07;;
15931;SDS011;8065;49.520;11.284;2023-04-25T06:57:18;4.70;;;4.30;;
15931;SDS011;8065;49.520;11.284;2023-04-25T06:59:44;5.10;;;4.60;;
15931;SDS011;8065;49.520;11.284;2023-04-25T07:02:11;6.27;;;5.33;;
15931;SDS011;8065;49.520;11.284;2023-04-25T07:04:38;6.13;;;4.97;;
15931;SDS011;8065;49.520;11.284;2023-04-25T07:07:05;8.03;;;5.60;;
15931;SDS011;8065;49.520;11.284;2023-04-25T07:09:32;6.77;;;5.30;;
15931;SDS011;8065;49.520;11.284;2023-04-25T07:11:58;8.67;;;5.60;;
15931;SDS011;8065;49.520;11.284;2023-04-25T07:14:26;7.10;;;5.80;;
15931;SDS011;8065;49.520;11.284;2023-04-25T07:16:52;5.93;;;4.97;;
15931;SDS011;8065;49.520;11.284;2023-04-25T07:19:20;5.83;;;5.20;;
15931;SDS011;8065;49.520;11.284;2023-04-25T07:21:50;5.83;;;4.93;;
15931;SDS011;8065;49.520;11.284;2023-04-25T07:24:16;7.37;;;6.57;;
15931;SDS011;8065;49.520;11.284;2023-04-25T07:26:43;7.93;;;6.60;;
15931;SDS011;8065;49.520;11.284;2023-04-25T07:29:09;7.37;;;6.20;;
15931;SDS011;8065;49.520;11.284;2023-04-25T07:31:36;6.87;;;6.17;;
15931;SDS011;8065;49.520;11.284;2023-04-25T07:34:02;7.13;;;6.53;;
15931;SDS011;8065;49.520;11.284;2023-04-25T07:36:29;6.80;;;6.20;;
15931;SDS011;8065;49.520;11.284;2023-04-25T07:38:57;8.17;;;6.87;;
15931;SDS011;8065;49.520;11.284;2023-04-25T07:41:23;6.83;;;6.23;;
15931;SDS011;8065;49.520;11.284;2023-04-25T07:43:50;8.47;;;6.27;;
15931;SDS011;8065;49.520;11.284;2023-04-25T07:46:16;5.17;;;4.60;;
15931;SDS011;8065;49.520;11.284;2023-04-25T07:48:43;5.37;;;4.30;;
15931;SDS011;8065;49.520;11.284;2023-04-25T07:51:09;4.63;;;4.20;;
15931;SDS011;8065;49.520;11.284;2023-04-25T07:53:36;6.07;;;4.00;;
15931;SDS011;8065;49.520;11.284;2023-04-25T07:56:05;6.03;;;4.30;;
15931;SDS011;8065;49.520;11.284;2023-04-25T07:58:31;5.70;;;4.20;;
15931;SDS011;8065;49.520;11.284;2023-04-25T08:00:58;4.27;;;3.80;;
15931;SDS011;8065;49.520;11.284;2023-04-25T08:03:24;5.27;;;3.80;;
15931;SDS011;8065;49.520;11.284;2023-04-25T08:05:51;4.87;;;3.90;;
15931;SDS011;8065;49.520;11.284;2023-04-25T08:08:17;4.13;;;3.73;;
15931;SDS011;8065;49.520;11.284;2023-04-25T08:10:44;4.53;;;3.57;;
15931;SDS011;8065;49.520;11.284;2023-04-25T08:13:12;5.20;;;3.60;;
15931;SDS011;8065;49.520;11.284;2023-04-25T08:15:38;3.30;;;3.00;;
15931;SDS011;8065;49.520;11.284;2023-04-25T08:18:05;4.00;;;3.17;;
15931;SDS011;8065;49.520;11.284;2023-04-25T08:20:31;4.37;;;3.20;;
15931;SDS011;8065;49.520;11.284;2023-04-25T08:22:58;3.77;;;3.23;;
15931;SDS011;8065;49.520;11.284;2023-04-25T08:25:24;3.30;;;3.00;;
15931;SDS011;8065;49.520;11.284;2023-04-25T08:27:50;4.10;;;3.23;;
15931;SDS011;8065;49.520;11.284;2023-04-25T08:30:18;3.30;;;3.07;;
15931;SDS011;8065;49.520;11.284;2023-04-25T08:32:45;3.20;;;2.90;;
15931;SDS011;8065;49.520;11.284;2023-04-25T08:35:12;4.03;;;3.10;;
15931;SDS011;8065;49.520;11.284;2023-04-25T08:37:38;3.17;;;2.70;;
15931;SDS011;8065;49.520;11.284;2023-04-25T08:40:05;3.10;;;2.80;;
15931;SDS011;8065;49.520;11.284;2023-04-25T08:42:37;4.43;;;2.87;;
15931;SDS011;8065;49.520;11.284;2023-04-25T08:45:04;3.37;;;2.93;;
15931;SDS011;8065;49.520;11.284;2023-04-25T08:47:33;5.97;;;3.67;;
15931;SDS011;8065;49.520;11.284;2023-04-25T08:50:00;6.07;;;3.90;;
15931;SDS011;8065;49.520;11.284;2023-04-25T08:52:30;5.60;;;3.70;;
15931;SDS011;8065;49.520;11.284;2023-04-25T08:55:03;3.57;;;3.27;;
15931;SDS011;8065;49.520;11.284;2023-04-25T08:57:33;5.33;;;4.10;;
15931;SDS011;8065;49.520;11.284;2023-04-25T09:00:00;6.77;;;3.80;;
15931;SDS011;8065;49.520;11.284;2023-04-25T09:02:28;4.43;;;3.87;;
15931;SDS011;8065;49.520;11.284;2023-04-25T09:04:56;4.27;;;3.63;;
15931;SDS011;8065;49.520;11.284;2023-04-25T09:07:23;6.97;;;4.27;;
15931;SDS011;8065;49.520;11.284;2023-04-25T09:09:50;5.50;;;3.87;;
15931;SDS011;8065;49.520;11.284;2023-04-25T09:12:17;6.27;;;4.07;;
15931;SDS011;8065;49.520;11.284;2023-04-25T09:14:50;5.83;;;4.37;;
15931;SDS011;8065;49.520;11.284;2023-04-25T09:17:29;5.70;;;4.23;;
15931;SDS011;8065;49.520;11.284;2023-04-25T09:19:56;4.60;;;4.20;;
15931;SDS011;8065;49.520;11.284;2023-04-25T09:22:32;4.60;;;3.70;;
15931;SDS011;8065;49.520;11.284;2023-04-25T09:24:58;5.97;;;4.20;;
15931;SDS011;8065;49.520;11.284;2023-04-25T09:27:28;5.80;;;4.23;;
15931;SDS011;8065;49.520;11.284;2023-04-25T09:29:56;6.27;;;4.33;;
15931;SDS011;8065;49.520;11.284;2023-04-25T09:32:23;3.97;;;3.57;;
15931;SDS011;8065;49.520;11.284;2023-04-25T09:34:50;5.40;;;4.07;;
15931;SDS011;8065;49.520;11.284;2023-04-25T09:37:20;4.63;;;3.80;;
15931;SDS011;8065;49.520;11.284;2023-04-25T09:39:47;4.27;;;3.83;;
15931;SDS011;8065;49.520;11.284;2023-04-25T09:42:15;4.43;;;3.60;;
15931;SDS011;8065;49.520;11.284;2023-04-25T09:44:42;6.27;;;4.00;;
15931;SDS011;8065;49.520;11.284;2023-04-25T09:47:10;5.43;;;3.53;;
15931;SDS011;8065;49.520;11.284;2023-04-25T09:49:38;4.53;;;3.43;;
15931;SDS011;8065;49.520;11.284;2023-04-25T09:52:06;4.07;;;3.63;;
15931;SDS011;8065;49.520;11.284;2023-04-25T09:54:34;4.63;;;3.50;;
15931;SDS011;8065;49.520;11.284;2023-04-25T09:57:01;6.13;;;3.50;;
15931;SDS011;8065;49.520;11.284;2023-04-25T09:59:36;6.43;;;4.30;;
15931;SDS011;8065;49.520;11.284;2023-04-25T10:02:05;4.73;;;3.73;;
15931;SDS011;8065;49.520;11.284;2023-04-25T10:04:34;4.97;;;3.70;;
15931;SDS011;8065;49.520;11.284;2023-04-25T10:07:01;4.13;;;3.63;;
15931;SDS011;8065;49.520;11.284;2023-04-25T10:09:31;4.63;;;3.60;;
15931;SDS011;8065;49.520;11.284;2023-04-25T10:12:00;5.07;;;4.03;;
15931;SDS011;8065;49.520;11.284;2023-04-25T10:14:29;4.27;;;3.50;;
15931;SDS011;8065;49.520;11.284;2023-04-25T10:16:56;4.03;;;3.30;;
15931;SDS011;8065;49.520;11.284;2023-04-25T10:19:23;3.70;;;3.27;;
15931;SDS011;8065;49.520;11.284;2023-04-25T10:21:51;4.33;;;3.10;;
15931;SDS011;8065;49.520;11.284;2023-04-25T10:24:19;3.60;;;3.30;;
15931;SDS011;8065;49.520;11.284;2023-04-25T10:26:46;4.43;;;3.37;;
15931;SDS011;8065;49.520;11.284;2023-04-25T10:29:15;3.40;;;3.10;;
15931;SDS011;8065;49.520;11.284;2023-04-25T10:31:48;4.17;;;3.40;;
15931;SDS011;8065;49.520;11.284;2023-04-25T10:34:15;3.63;;;2.90;;
15931;SDS011;8065;49.520;11.284;2023-04-25T10:36:42;3.10;;;2.90;;
15931;SDS011;8065;49.520;11.284;2023-04-25T10:39:08;2.90;;;2.70;;
15931;SDS011;8065;49.520;11.284;2023-04-25T10:41:45;3.30;;;2.70;;
15931;SDS011;8065;49.520;11.284;2023-04-25T10:44:12;3.43;;;2.83;;
15931;SDS011;8065;49.520;11.284;2023-04-25T10:46:41;2.83;;;2.50;;
15931;SDS011;8065;49.520;11.284;2023-04-25T10:49:10;2.30;;;2.10;;
15931;SDS011;8065;49.520;11.284;2023-04-25T10:51:36;2.50;;;2.20;;
15931;SDS011;8065;49.520;11.284;2023-04-25T10:54:03;2.60;;;2.20;;
15931;SDS011;8065;49.520;11.284;2023-04-25T10:56:31;2.30;;;1.80;;
15931;SDS011;8065;49.520;11.284;2023-04-25T10:59:05;1.47;;;1.37;;
15931;SDS011;8065;49.520;11.284;2023-04-25T11:01:37;2.30;;;1.70;;
15931;SDS011;8065;49.520;11.284;2023-04-25T11:04:05;2.77;;;1.60;;
15931;SDS011;8065;49.520;11.284;2023-04-25T11:06:34;2.33;;;1.50;;
15931;SDS011;8065;49.520;11.284;2023-04-25T11:09:12;3.47;;;1.77;;
15931;SDS011;8065;49.520;11.284;2023-04-25T11:11:39;1.50;;;1.40;;
15931;SDS011;8065;49.520;11.284;2023-04-25T11:14:05;2.20;;;1.97;;
15931;SDS011;8065;49.520;11.284;2023-04-25T11:16:32;3.90;;;2.33;;
15931;SDS011;8065;49.520;11.284;2023-04-25T11:19:00;4.87;;;2.60;;
15931;SDS011;8065;49.520;11.284;2023-04-25T11:21:27;4.37;;;2.83;;
15931;SDS011;8065;49.520;11.284;2023-04-25T11:23:53;3.70;;;2.67;;
15931;SDS011;8065;49.520;11.284;2023-04-25T11:26:20;2.73;;;2.53;;
15931;SDS011;8065;49.520;11.284;2023-04-25T11:28:47;4.67;;;2.30;;
15931;SDS011;8065;49.520;11.284;2023-04-25T11:31:15;3.23;;;2.30;;
15931;SDS011;8065;49.520;11.284;2023-04-25T11:33:41;4.43;;;2.70;;
15931;SDS011;8065;49.520;11.284;2023-04-25T11:36:11;4.47;;;2.23;;
15931;SDS011;8065;49.520;11.284;2023-04-25T11:38:37;3.17;;;2.67;;
15931;SDS011;8065;49.520;11.284;2023-04-25T11:41:05;3.27;;;2.97;;
15931;SDS011;8065;49.520;11.284;2023-04-25T11:43:31;2.20;;;2.00;;
15931;SDS011;8065;49.520;11.284;2023-04-25T11:45:58;2.93;;;2.50;;
15931;SDS011;8065;49.520;11.284;2023-04-25T11:48:24;4.33;;;2.90;;
15931;SDS011;8065;49.520;11.284;2023-04-25T11:50:51;2.60;;;2.20;;
15931;SDS011;8065;49.520;11.284;2023-04-25T11:53:19;4.03;;;2.20;;
15931;SDS011;8065;49.520;11.284;2023-04-25T11:55:45;2.20;;;2.00;;
15931;SDS011;8065;49.520;11.284;2023-04-25T11:58:12;1.97;;;1.77;;
15931;SDS011;8065;49.520;11.284;2023-04-25T12:00:41;2.93;;;2.00;;
15931;SDS011;8065;49.520;11.284;2023-04-25T12:03:08;1.87;;;1.77;;
15931;SDS011;8065;49.520;11.284;2023-04-25T12:05:35;3.33;;;1.80;;
15931;SDS011;8065;49.520;11.284;2023-04-25T12:08:09;1.57;;;1.40;;
15931;SDS011;8065;49.520;11.284;2023-04-25T12:10:38;3.50;;;1.80;;
15931;SDS011;8065;49.520;11.284;2023-04-25T12:13:22;1.33;;;1.23;;
15931;SDS011;8065;49.520;11.284;2023-04-25T12:15:50;1.90;;;1.30;;
15931;SDS011;8065;49.520;11.284;2023-04-25T12:18:18;1.90;;;1.10;;
15931;SDS011;8065;49.520;11.284;2023-04-25T12:20:45;1.63;;;1.13;;
15931;SDS011;8065;49.520;11.284;2023-04-25T12:23:12;1.23;;;1.10;;
15931;SDS011;8065;49.520;11.284;2023-04-25T12:25:40;1.20;;;1.10;;
15931;SDS011;8065;49.520;11.284;2023-04-25T12:28:11;1.47;;;1.00;;
15931;SDS011;8065;49.520;11.284;2023-04-25T12:30:52;1.00;;;1.00;;
15931;SDS011;8065;49.520;11.284;2023-04-25T12:33:22;1.07;;;0.97;;
15931;SDS011;8065;49.520;11.284;2023-04-25T12:35:49;1.40;;;1.30;;
15931;SDS011;8065;49.520;11.284;2023-04-25T12:38:20;1.30;;;1.20;;
15931;SDS011;8065;49.520;11.284;2023-04-25T12:40:49;1.70;;;1.20;;
15931;SDS011;8065;49.520;11.284;2023-04-25T12:43:15;1.67;;;1.27;;
15931;SDS011;8065;49.520;11.284;2023-04-25T12:45:42;1.40;;;1.30;;
15931;SDS011;8065;49.520;11.284;2023-04-25T12:48:08;2.20;;;1.33;;
15931;SDS011;8065;49.520;11.284;2023-04-25T12:50:35;1.50;;;1.40;;
15931;SDS011;8065;49.520;11.284;2023-04-25T12:53:01;2.20;;;1.30;;
15931;SDS011;8065;49.520;11.284;2023-04-25T12:55:28;1.47;;;1.37;;
15931;SDS011;8065;49.520;11.284;2023-04-25T12:57:58;1.83;;;1.73;;
15931;SDS011;8065;49.520;11.284;2023-04-25T13:00:24;1.93;;;1.43;;
15931;SDS011;8065;49.520;11.284;2023-04-25T13:02:51;1.50;;;1.40;;
15931;SDS011;8065;49.520;11.284;2023-04-25T13:05:17;1.50;;;1.40;;
15931;SDS011;8065;49.520;11.284;2023-04-25T13:07:44;3.10;;;2.40;;
15931;SDS011;8065;49.520;11.284;2023-04-25T13:10:10;2.93;;;2.60;;
15931;SDS011;8065;49.520;11.284;2023-04-25T13:12:37;4.70;;;3.27;;
15931;SDS011;8065;49.520;11.284;2023-04-25T13:15:05;4.10;;;3.30;;
15931;SDS011;8065;49.520;11.284;2023-04-25T13:17:34;2.50;;;2.30;;
15931;SDS011;8065;49.520;11.284;2023-04-25T13:20:00;2.10;;;1.90;;
15931;SDS011;8065;49.520;11.284;2023-04-25T13:22:29;1.50;;;1.40;;
15931;SDS011;8065;49.520;11.284;2023-04-25T13:24:56;1.50;;;1.40;;
15931;SDS011;8065;49.520;11.284;2023-04-25T13:27:22;1.70;;;1.60;;
15931;SDS011;8065;49.520;11.284;2023-04-25T13:29:49;1.97;;;1.70;;
15931;SDS011;8065;49.520;11.284;2023-04-25T13:32:16;1.67;;;1.37;;
15931;SDS011;8065;49.520;11.284;2023-04-25T13:34:43;1.80;;;1.70;;
15931;SDS011;8065;49.520;11.284;2023-04-25T13:37:09;2.87;;;2.53;;
15931;SDS011;8065;49.520;11.284;2023-04-25T13:39:36;2.13;;;1.60;;
15931;SDS011;8065;49.520;11.284;2023-04-25T13:42:02;1.87;;;1.77;;
15931;SDS011;8065;49.520;11.284;2023-04-25T13:44:29;1.77;;;1.67;;
15931;SDS011;8065;49.520;11.284;2023-04-25T13:46:55;2.23;;;2.03;;
15931;SDS011;8065;49.520;11.284;2023-04-25T13:49:23;4.47;;;2.57;;
15931;SDS011;8065;49.520;11.284;2023-04-25T13:51:50;3.20;;;2.10;;
15931;SDS011;8065;49.520;11.284;2023-04-25T13:54:16;2.90;;;1.60;;
15931;SDS011;8065;49.520;11.284;2023-04-25T13:56:42;1.70;;;1.50;;
15931;SDS011;8065;49.520;11.284;2023-04-25T13:59:09;2.67;;;2.00;;
15931;SDS011;8065;49.520;11.284;2023-04-25T14:01:36;1.90;;;1.80;;
15931;SDS011;8065;49.520;11.284;2023-04-25T14:04:03;3.27;;;2.10;;
15931;SDS011;8065;49.520;11.284;2023-04-25T14:06:31;4.57;;;2.10;;
15931;SDS011;8065;49.520;11.284;2023-04-25T14:08:58;2.07;;;1.87;;
15931;SDS011;8065;49.520;11.284;2023-04-25T14:11:25;1.83;;;1.67;;
15931;SDS011;8065;49.520;11.284;2023-04-25T14:13:51;3.50;;;2.70;;
15931;SDS011;8065;49.520;11.284;2023-04-25T14:16:18;2.13;;;1.90;;
15931;SDS011;8065;49.520;11.284;2023-04-25T14:18:45;2.20;;;1.53;;
15931;SDS011;8065;49.520;11.284;2023-04-25T14:21:12;3.63;;;1.43;;
15931;SDS011;8065;49.520;11.284;2023-04-25T14:23:39;2.33;;;1.90;;
15931;SDS011;8065;49.520;11.284;2023-04-25T14:26:06;1.83;;;1.73;;
15931;SDS011;8065;49.520;11.284;2023-04-25T14:28:37;1.80;;;1.70;;
15931;SDS011;8065;49.520;11.284;2023-04-25T14:31:03;3.50;;;1.93;;
15931;SDS011;8065;49.520;11.284;2023-04-25T14:33:30;2.53;;;1.70;;
15931;SDS011;8065;49.520;11.284;2023-04-25T14:35:56;2.00;;;1.80;;
15931;SDS011;8065;49.520;11.284;2023-04-25T14:38:23;1.80;;;1.70;;
15931;SDS011;8065;49.520;11.284;2023-04-25T14:40:51;1.67;;;1.57;;
15931;SDS011;8065;49.520;11.284;2023-04-25T14:43:19;2.07;;;1.77;;
15931;SDS011;8065;49.520;11.284;2023-04-25T14:45:45;4.43;;;1.77;;
15931;SDS011;8065;49.520;11.284;2023-04-25T14:48:12;2.17;;;2.03;;